Time;durP1;ratioP1;P1;durP2;ratioP2;P2;SDS_P1;SDS_P2;PMS_P1;PMS_P2;Temp;Humidity;BMP_temperature;BMP_pressure;BME280_temperature;BME280_humidity;BME280_pressure;Samples;Min_cycle;Max_cycle;Signal;HPM_P1;HPM_P2
2024/04/16 00:01:31;;;;;;;14.00;5.82;;;538.40;1382.40;;;;;;5520477;26;19997;-71
2024/04/16 00:03:57;;;;;;;10.18;5.65;;;538.40;1356.80;;;;;;5519515;26;20335;-72
2024/04/16 00:06:23;;;;;;;9.85;5.97;;;538.40;1356.80;;;;;;5520347;25;20015;-71
2024/04/16 00:08:50;;;;;;;12.35;5.22;;;538.40;1382.40;;;;;;5520434;26;20017;-71
2024/04/16 00:11:16;;;;;;;6.40;5.03;;;538.20;1382.40;;;;;;5520171;26;20021;-73
2024/04/16 00:13:41;;;;;;;8.80;5.60;;;538.10;1408.00;;;;;;5520521;25;19997;-72
2024/04/16 00:16:07;;;;;;;14.60;5.63;;;538.10;1408.00;;;;;;5519940;26;20363;-72
2024/04/16 00:18:33;;;;;;;10.05;5.75;;;538.00;1408.00;;;;;;5520617;26;20034;-72
2024/04/16 00:20:59;;;;;;;11.00;5.65;;;538.00;1408.00;;;;;;5519956;25;20001;-71
2024/04/16 00:23:27;;;;;;;11.32;5.78;;;538.00;1408.00;;;;;;5519530;25;20009;-71
2024/04/16 00:25:52;;;;;;;14.65;6.40;;;538.10;1382.40;;;;;;5520090;26;20008;-73
2024/04/16 00:28:18;;;;;;;11.40;5.93;;;538.10;1382.40;;;;;;5520251;25;19997;-71
2024/04/16 00:30:44;;;;;;;14.07;6.65;;;538.30;1382.40;;;;;;5520137;26;20037;-72
2024/04/16 00:33:10;;;;;;;9.18;6.00;;;538.00;1459.20;;;;;;5520270;25;20006;-72
2024/04/16 00:35:36;;;;;;;10.45;6.38;;;537.80;1484.80;;;;;;5519623;25;20008;-72
2024/04/16 00:38:02;;;;;;;10.95;6.00;;;537.60;1510.40;;;;;;5520354;25;20109;-73
2024/04/16 00:40:28;;;;;;;11.68;6.22;;;512.90;1484.80;;;;;;5519741;26;19998;-72
2024/04/16 00:42:53;;;;;;;11.98;6.20;;;512.90;1484.80;;;;;;5519985;26;20085;-72
2024/04/16 00:45:19;;;;;;;13.10;5.82;;;512.60;1536.00;;;;;;5519096;26;19997;-72
2024/04/16 00:47:46;;;;;;;10.73;5.93;;;512.60;1510.40;;;;;;5491886;26;20005;-72
2024/04/16 00:50:13;;;;;;;8.85;5.70;;;512.60;1484.80;;;;;;5519601;25;20026;-72
2024/04/16 00:52:41;;;;;;;11.30;5.82;;;512.70;1459.20;;;;;;5519986;26;19998;-71
2024/04/16 00:55:08;;;;;;;11.30;6.15;;;512.80;1433.60;;;;;;5519162;26;20001;-71
2024/04/16 00:57:35;;;;;;;15.02;7.88;;;512.90;1433.60;;;;;;5519697;25;20013;-72
2024/04/16 01:00:01;;;;;;;10.23;6.53;;;537.60;1433.60;;;;;;5518417;25;19997;-72
2024/04/16 01:02:27;;;;;;;15.82;6.55;;;537.70;1433.60;;;;;;5519569;26;20093;-72
2024/04/16 01:04:54;;;;;;;18.58;7.00;;;537.70;1433.60;;;;;;5519210;26;20435;-71
2024/04/16 01:07:23;;;;;;;13.00;6.28;;;537.70;1459.20;;;;;;5520124;25;19998;-71
2024/04/16 01:09:49;;;;;;;14.23;6.85;;;537.70;1459.20;;;;;;5518834;25;20009;-71
2024/04/16 01:12:14;;;;;;;11.98;6.80;;;537.70;1433.60;;;;;;5520058;25;20389;-71
2024/04/16 01:14:41;;;;;;;12.40;6.55;;;537.80;1433.60;;;;;;5518808;25;19997;-72
2024/04/16 01:17:07;;;;;;;14.98;7.55;;;537.90;1408.00;;;;;;5518815;25;20009;-71
2024/04/16 01:19:33;;;;;;;14.00;7.82;;;538.10;1408.00;;;;;;5519678;25;19998;-71
2024/04/16 01:21:59;;;;;;;12.45;6.75;;;538.00;1433.60;;;;;;5519099;26;20523;-72
2024/04/16 01:24:25;;;;;;;13.20;6.35;;;538.10;1433.60;;;;;;5519267;26;20013;-72
2024/04/16 01:26:50;;;;;;;16.17;7.03;;;538.00;1433.60;;;;;;5518884;25;19993;-73
2024/04/16 01:29:16;;;;;;;13.27;7.00;;;538.00;1433.60;;;;;;5519027;25;20029;-71
2024/04/16 01:31:42;;;;;;;11.45;6.78;;;538.00;1433.60;;;;;;5518550;26;20001;-71
2024/04/16 01:34:08;;;;;;;8.43;6.18;;;538.00;1459.20;;;;;;5519171;26;20008;-70
2024/04/16 01:36:34;;;;;;;15.18;6.93;;;538.00;1459.20;;;;;;5518617;25;20010;-72
2024/04/16 01:39:00;;;;;;;9.30;6.82;;;538.00;1459.20;;;;;;5519323;26;20066;-73
2024/04/16 01:41:25;;;;;;;12.23;6.88;;;538.10;1459.20;;;;;;5518365;26;19997;-72
2024/04/16 01:43:51;;;;;;;13.73;7.60;;;538.10;1459.20;;;;;;5518757;26;20007;-71
2024/04/16 01:46:17;;;;;;;11.65;7.03;;;537.90;1484.80;;;;;;5517755;25;20001;-73
2024/04/16 01:48:43;;;;;;;18.83;7.70;;;537.80;1510.40;;;;;;5518997;26;20001;-73
2024/04/16 01:51:09;;;;;;;14.00;7.05;;;537.70;1510.40;;;;;;5518538;25;19993;-72
2024/04/16 01:53:35;;;;;;;14.57;7.20;;;537.90;1484.80;;;;;;5516802;25;20428;-73
2024/04/16 01:56:01;;;;;;;13.00;6.97;;;537.70;1510.40;;;;;;5518072;25;19990;-72
2024/04/16 01:58:27;;;;;;;8.95;6.95;;;537.80;1510.40;;;;;;5519972;26;20027;-72
2024/04/16 02:01:00;;;;;;;9.20;6.28;;;512.90;1484.80;;;;;;5521689;25;19996;-72
2024/04/16 02:03:26;;;;;;;10.52;6.57;;;538.00;1484.80;;;;;;5522496;26;19997;-72
2024/04/16 02:05:51;;;;;;;13.98;7.75;;;537.80;1484.80;;;;;;5520906;26;20001;-72
2024/04/16 02:08:18;;;;;;;14.60;6.95;;;537.70;1510.40;;;;;;5522194;25;20002;-71
2024/04/16 02:10:59;;;;;;;12.50;7.57;;;537.60;1510.40;;;;;;5522241;25;20005;-73
2024/04/16 02:13:25;;;;;;;11.43;7.57;;;512.90;1484.80;;;;;;5521868;26;20012;-72
2024/04/16 02:15:51;;;;;;;14.40;7.57;;;512.80;1510.40;;;;;;5522092;25;19997;-72
2024/04/16 02:18:17;;;;;;;12.15;6.55;;;512.80;1510.40;;;;;;5521686;25;20002;-72
2024/04/16 02:20:43;;;;;;;10.95;6.60;;;512.80;1510.40;;;;;;5521647;26;20012;-73
2024/04/16 02:23:09;;;;;;;9.75;7.22;;;512.70;1510.40;;;;;;5521094;25;20001;-72
2024/04/16 02:25:35;;;;;;;12.52;6.68;;;512.80;1510.40;;;;;;5521312;25;20647;-71
2024/04/16 02:28:01;;;;;;;11.05;6.72;;;537.80;1536.00;;;;;;5521616;26;20029;-71
2024/04/16 02:30:27;;;;;;;12.07;7.82;;;512.90;1510.40;;;;;;5520798;25;20073;-72
2024/04/16 02:32:54;;;;;;;10.57;6.90;;;512.80;1510.40;;;;;;5521800;26;20384;-72
2024/04/16 02:35:20;;;;;;;16.98;8.00;;;512.90;1510.40;;;;;;5521640;26;20041;-72
2024/04/16 02:37:48;;;;;;;14.48;7.53;;;537.60;1510.40;;;;;;5521541;25;19997;-72
2024/04/16 02:40:15;;;;;;;10.15;6.80;;;537.60;1536.00;;;;;;5521582;26;20069;-72
2024/04/16 02:42:41;;;;;;;16.70;7.95;;;537.70;1510.40;;;;;;5522263;26;20016;-72
2024/04/16 02:45:07;;;;;;;19.17;7.30;;;512.90;1484.80;;;;;;5520768;25;19997;-72
2024/04/16 02:47:33;;;;;;;14.15;7.32;;;537.80;1536.00;;;;;;5521785;25;20034;-72
2024/04/16 02:49:58;;;;;;;11.98;6.47;;;537.70;1536.00;;;;;;5520953;26;20070;-72
2024/04/16 02:52:24;;;;;;;13.45;7.47;;;537.60;1536.00;;;;;;5522155;25;19998;-74
2024/04/16 02:54:52;;;;;;;12.30;7.35;;;512.90;1510.40;;;;;;5521296;26;20013;-74
2024/04/16 02:57:18;;;;;;;14.15;7.68;;;512.90;1510.40;;;;;;5521671;25;20074;-73
2024/04/16 02:59:48;;;;;;;13.27;7.18;;;512.90;1510.40;;;;;;5521013;26;20013;-73
2024/04/16 03:02:15;;;;;;;12.32;7.53;;;512.90;1510.40;;;;;;5521586;26;20073;-76
2024/04/16 03:04:40;;;;;;;13.80;7.43;;;512.90;1510.40;;;;;;5520808;25;20011;-75
2024/04/16 03:07:06;;;;;;;15.48;7.85;;;512.90;1510.40;;;;;;5521227;26;20466;-72
2024/04/16 03:09:32;;;;;;;11.40;7.80;;;537.60;1536.00;;;;;;5519974;25;20023;-74
2024/04/16 03:11:58;;;;;;;13.85;7.25;;;512.90;1536.00;;;;;;5521456;25;20019;-72
2024/04/16 03:14:24;;;;;;;15.65;7.82;;;512.90;1536.00;;;;;;5520945;26;20064;-72
2024/04/16 03:16:50;;;;;;;18.63;7.50;;;537.60;1536.00;;;;;;5521140;25;19994;-72
2024/04/16 03:19:16;;;;;;;12.88;7.75;;;537.70;1536.00;;;;;;5526049;26;20002;-73
2024/04/16 03:21:41;;;;;;;17.52;8.80;;;537.80;1536.00;;;;;;5528099;25;20013;-73
2024/04/16 03:24:07;;;;;;;10.98;7.95;;;537.80;1536.00;;;;;;5524529;25;20008;-76
2024/04/16 03:26:33;;;;;;;13.82;8.57;;;512.90;1587.20;;;;;;5524841;25;20005;-72
2024/04/16 03:28:59;;;;;;;19.52;8.23;;;512.50;1612.80;;;;;;5521135;25;20008;-72
2024/04/16 03:31:25;;;;;;;13.25;8.05;;;512.40;1638.40;;;;;;5521552;25;19997;-72
2024/04/16 03:33:50;;;;;;;13.27;8.02;;;512.40;1638.40;;;;;;5520630;26;19993;-72
2024/04/16 03:36:16;;;;;;;15.75;7.85;;;512.10;1664.00;;;;;;5520643;25;20007;-72
2024/04/16 03:38:42;;;;;;;21.75;8.15;;;512.10;1664.00;;;;;;5520855;25;20433;-74
2024/04/16 03:41:08;;;;;;;11.45;7.47;;;512.20;1638.40;;;;;;5521095;26;20008;-72
2024/04/16 03:43:34;;;;;;;10.48;7.25;;;512.10;1638.40;;;;;;5520235;25;20005;-72
2024/04/16 03:46:02;;;;;;;15.38;7.03;;;512.20;1638.40;;;;;;5517731;25;20324;-72
2024/04/16 03:48:28;;;;;;;22.23;8.30;;;512.50;1587.20;;;;;;5498904;26;20037;-72
2024/04/16 03:50:53;;;;;;;12.05;7.97;;;512.80;1561.60;;;;;;5521310;25;19997;-72
2024/04/16 03:53:19;;;;;;;16.05;7.07;;;512.70;1612.80;;;;;;5520452;26;20381;-72
2024/04/16 03:55:45;;;;;;;17.20;8.32;;;512.60;1587.20;;;;;;5521219;25;19997;-72
2024/04/16 03:58:11;;;;;;;17.02;8.15;;;512.70;1561.60;;;;;;5520207;25;20007;-72
2024/04/16 04:03:21;;;;;;;13.98;7.45;;;512.90;1561.60;;;;;;5521059;25;20016;-71
2024/04/16 04:05:47;;;;;;;15.38;9.13;;;537.60;1561.60;;;;;;5520031;25;20367;-72
2024/04/16 04:08:13;;;;;;;15.30;7.32;;;537.70;1561.60;;;;;;5520932;26;19997;-71
2024/04/16 04:10:40;;;;;;;14.32;7.45;;;537.80;1561.60;;;;;;5519827;25;19993;-71
2024/04/16 04:13:06;;;;;;;14.60;7.53;;;537.80;1561.60;;;;;;5520673;26;20013;-72
2024/04/16 04:15:32;;;;;;;14.30;7.57;;;538.00;1561.60;;;;;;5519726;26;20389;-72
2024/04/16 04:17:58;;;;;;;15.77;7.50;;;538.00;1561.60;;;;;;5520107;26;20332;-72
2024/04/16 04:20:24;;;;;;;13.50;7.32;;;538.00;1536.00;;;;;;5519810;25;20013;-77
2024/04/16 04:22:50;;;;;;;17.45;8.15;;;538.20;1536.00;;;;;;5518775;26;20012;-75
2024/04/16 04:25:16;;;;;;;9.90;6.60;;;538.30;1536.00;;;;;;5520050;26;20012;-72
2024/04/16 04:27:42;;;;;;;14.88;7.93;;;538.30;1536.00;;;;;;5520791;26;19997;-78
2024/04/16 04:30:08;;;;;;;14.82;7.18;;;538.40;1510.40;;;;;;5519559;25;20011;-71
2024/04/16 04:32:34;;;;;;;21.25;8.73;;;538.50;1510.40;;;;;;5519575;25;20017;-71
2024/04/16 04:35:00;;;;;;;17.95;9.27;;;538.40;1561.60;;;;;;5519455;26;20493;-72
2024/04/16 04:37:27;;;;;;;13.70;7.82;;;538.10;1612.80;;;;;;5520063;25;20332;-72
2024/04/16 04:39:52;;;;;;;18.13;9.45;;;538.00;1587.20;;;;;;5519795;25;20065;-70
2024/04/16 04:42:18;;;;;;;20.42;10.63;;;538.00;1587.20;;;;;;5519672;25;20088;-73
2024/04/16 04:44:44;;;;;;;12.23;7.75;;;538.10;1612.80;;;;;;5518280;25;20500;-72
2024/04/16 04:47:10;;;;;;;16.85;9.80;;;538.10;1587.20;;;;;;5519989;26;20072;-72
2024/04/16 04:49:36;;;;;;;19.05;9.75;;;538.10;1612.80;;;;;;5519131;25;20528;-72
2024/04/16 04:52:02;;;;;;;22.35;9.23;;;538.00;1587.20;;;;;;5520801;25;20013;-72
2024/04/16 04:54:28;;;;;;;13.55;8.27;;;538.50;1561.60;;;;;;5519134;25;20432;-72
2024/04/16 04:56:54;;;;;;;22.15;9.15;;;563.30;1612.80;;;;;;5520387;26;20013;-72
2024/04/16 04:59:21;;;;;;;19.95;10.13;;;563.50;1587.20;;;;;;5518690;26;19997;-72
2024/04/16 05:01:46;;;;;;;14.15;8.93;;;563.90;1561.60;;;;;;5519990;25;20002;-71
2024/04/16 05:04:12;;;;;;;17.08;9.10;;;589.20;1510.40;;;;;;5519286;25;20008;-72
2024/04/16 05:06:38;;;;;;;21.42;9.13;;;589.40;1484.80;;;;;;5519109;25;20069;-77
2024/04/16 05:09:08;;;;;;;17.05;8.38;;;614.50;1459.20;;;;;;5518424;26;19998;-71
2024/04/16 05:11:34;;;;;;;14.55;8.88;;;614.50;1459.20;;;;;;5520311;26;19997;-79
2024/04/16 05:13:59;;;;;;;14.25;8.52;;;614.60;1459.20;;;;;;5518364;25;19994;-71
2024/04/16 05:16:25;;;;;;;20.52;9.23;;;615.00;1484.80;;;;;;5519595;26;20009;-72
2024/04/16 05:18:51;;;;;;;14.77;9.15;;;640.20;1408.00;;;;;;5518342;25;19997;-71
2024/04/16 05:21:17;;;;;;;19.40;8.50;;;640.00;1408.00;;;;;;5503465;25;20002;-76
2024/04/16 05:23:44;;;;;;;18.05;10.15;;;640.60;1408.00;;;;;;5516688;26;20005;-74
2024/04/16 05:26:10;;;;;;;18.23;8.73;;;665.70;1408.00;;;;;;5497562;25;20002;-71
2024/04/16 05:28:36;;;;;;;16.60;8.55;;;665.70;1382.40;;;;;;5504564;26;20425;-72
2024/04/16 05:31:02;;;;;;;19.60;8.63;;;640.90;1382.40;;;;;;5512526;25;20009;-71
2024/04/16 05:33:31;;;;;;;19.83;8.88;;;665.70;1382.40;;;;;;5518042;26;20090;-73
2024/04/16 05:35:57;;;;;;;15.30;7.55;;;665.60;1408.00;;;;;;5506449;26;20010;-73
2024/04/16 05:38:23;;;;;;;21.23;7.93;;;665.80;1408.00;;;;;;5518134;25;20013;-72
2024/04/16 05:40:49;;;;;;;16.13;7.93;;;665.90;1382.40;;;;;;5503896;26;20002;-70
2024/04/16 05:43:15;;;;;;;22.02;9.15;;;640.60;1382.40;;;;;;5518302;25;19997;-72
2024/04/16 05:45:41;;;;;;;14.75;8.40;;;640.60;1356.80;;;;;;5513957;25;20508;-70
2024/04/16 05:48:07;;;;;;;17.33;8.60;;;640.50;1382.40;;;;;;5517148;26;20406;-73
2024/04/16 05:50:33;;;;;;;16.92;9.00;;;640.40;1382.40;;;;;;5519435;25;19993;-72
2024/04/16 05:52:59;;;;;;;25.00;9.35;;;640.20;1382.40;;;;;;5517856;26;20320;-71
2024/04/16 05:55:25;;;;;;;21.52;9.38;;;640.10;1382.40;;;;;;5519382;25;19998;-71
2024/04/16 05:57:50;;;;;;;21.20;8.43;;;640.30;1382.40;;;;;;5518582;26;19997;-71
2024/04/16 06:00:17;;;;;;;19.70;7.95;;;640.50;1356.80;;;;;;5518859;26;20013;-71
2024/04/16 06:02:43;;;;;;;23.63;8.43;;;640.60;1356.80;;;;;;5505449;25;20006;-71
2024/04/16 06:05:08;;;;;;;18.88;8.30;;;665.80;1356.80;;;;;;5506684;26;19994;-74
2024/04/16 06:07:34;;;;;;;19.08;9.57;;;666.10;1356.80;;;;;;5501689;26;20001;-75
2024/04/16 06:10:00;;;;;;;25.45;11.40;;;691.30;1305.60;;;;;;5519003;26;19997;-77
2024/04/16 06:12:26;;;;;;;18.48;8.95;;;691.80;1280.00;;;;;;5518765;25;19997;-73
2024/04/16 06:14:52;;;;;;;22.23;8.95;;;717.20;1280.00;;;;;;5512883;25;20083;-72
2024/04/16 06:17:18;;;;;;;23.30;8.95;;;717.50;1280.00;;;;;;5501201;26;20013;-73
2024/04/16 06:19:46;;;;;;;23.00;10.25;;;742.50;1254.40;;;;;;5517808;26;20436;-73
2024/04/16 06:22:12;;;;;;;18.80;10.05;;;768.10;1203.20;;;;;;5517335;25;20001;-71
2024/04/16 06:24:38;;;;;;;18.80;10.43;;;768.50;1203.20;;;;;;5518298;26;20012;-72
2024/04/16 06:27:04;;;;;;;15.95;9.98;;;768.50;1228.80;;;;;;5518194;25;19993;-72
2024/04/16 06:29:30;;;;;;;30.45;10.20;;;742.90;1254.40;;;;;;5518636;25;20070;-72
2024/04/16 06:31:55;;;;;;;29.17;10.43;;;742.80;1254.40;;;;;;5517490;25;20017;-71
2024/04/16 06:34:21;;;;;;;27.77;9.32;;;742.40;1280.00;;;;;;5518565;25;20451;-73
2024/04/16 06:36:47;;;;;;;23.92;10.13;;;717.40;1254.40;;;;;;5498820;25;20001;-70
2024/04/16 06:39:13;;;;;;;20.80;9.98;;;717.10;1280.00;;;;;;5518511;26;20002;-75
2024/04/16 06:41:39;;;;;;;22.52;10.30;;;717.10;1254.40;;;;;;5516448;25;19993;-78
2024/04/16 06:44:04;;;;;;;31.88;10.20;;;716.80;1280.00;;;;;;5517816;25;20012;-76
2024/04/16 06:46:30;;;;;;;19.50;9.93;;;692.00;1280.00;;;;;;5520187;26;19997;-74
2024/04/16 06:48:56;;;;;;;25.88;10.32;;;691.90;1254.40;;;;;;5504395;26;20066;-75
2024/04/16 06:51:22;;;;;;;16.50;8.30;;;691.90;1280.00;;;;;;5521430;25;20073;-74
2024/04/16 06:53:50;;;;;;;17.88;8.98;;;691.40;1305.60;;;;;;5521017;25;19994;-77
2024/04/16 06:56:16;;;;;;;16.65;9.27;;;691.30;1331.20;;;;;;5521266;26;20069;-76
2024/04/16 06:58:42;;;;;;;21.05;9.77;;;666.50;1331.20;;;;;;5521686;26;20005;-76
2024/04/16 07:01:09;;;;;;;23.55;9.50;;;666.20;1331.20;;;;;;5520994;25;20000;-77
2024/04/16 07:03:35;;;;;;;19.73;9.30;;;666.10;1356.80;;;;;;5520973;25;20081;-76
2024/04/16 07:06:01;;;;;;;18.25;8.63;;;666.20;1356.80;;;;;;5520741;26;20006;-74
2024/04/16 07:08:27;;;;;;;23.73;9.35;;;666.50;1331.20;;;;;;5521360;25;20066;-75
2024/04/16 07:10:54;;;;;;;21.58;9.93;;;666.40;1331.20;;;;;;5522425;25;20431;-75
2024/04/16 07:13:19;;;;;;;22.50;9.88;;;666.20;1356.80;;;;;;5522319;26;20005;-76
2024/04/16 07:15:45;;;;;;;18.83;10.00;;;665.90;1356.80;;;;;;5523204;26;20339;-76
2024/04/16 07:18:11;;;;;;;23.65;10.48;;;665.70;1356.80;;;;;;5521010;26;19997;-76
2024/04/16 07:20:37;;;;;;;24.23;9.45;;;665.70;1356.80;;;;;;5521011;25;19993;-75
2024/04/16 07:23:04;;;;;;;21.38;9.98;;;665.60;1382.40;;;;;;5519721;25;20002;-76
2024/04/16 07:25:29;;;;;;;20.52;9.77;;;640.90;1331.20;;;;;;5520999;25;19994;-74
2024/04/16 07:27:55;;;;;;;24.15;9.55;;;640.90;1356.80;;;;;;5520344;26;19989;-76
2024/04/16 07:30:21;;;;;;;20.23;8.63;;;640.70;1356.80;;;;;;5520674;26;19997;-75
2024/04/16 07:32:47;;;;;;;21.55;9.25;;;640.70;1356.80;;;;;;5518846;25;20004;-76
2024/04/16 07:35:13;;;;;;;21.90;8.88;;;640.60;1382.40;;;;;;5514893;26;20052;-74
2024/04/16 07:37:39;;;;;;;19.98;10.27;;;640.40;1382.40;;;;;;5519369;25;20211;-75
2024/04/16 07:40:05;;;;;;;21.83;10.38;;;640.40;1408.00;;;;;;5520984;25;20061;-76
2024/04/16 07:42:31;;;;;;;19.48;9.20;;;640.50;1382.40;;;;;;5520683;25;20444;-75
2024/04/16 07:44:57;;;;;;;28.13;9.43;;;640.40;1382.40;;;;;;5517906;26;20001;-81
2024/04/16 07:47:23;;;;;;;25.55;9.05;;;640.50;1382.40;;;;;;5485528;26;19998;-81
2024/04/16 07:49:48;;;;;;;22.70;9.15;;;640.60;1408.00;;;;;;5512834;26;20004;-82
2024/04/16 07:52:14;;;;;;;15.40;9.18;;;640.70;1382.40;;;;;;5521061;26;20035;-81
2024/04/16 07:54:40;;;;;;;23.15;9.60;;;665.60;1408.00;;;;;;5520945;26;19994;-82
2024/04/16 07:57:06;;;;;;;20.75;9.40;;;665.80;1408.00;;;;;;5517527;26;20072;-79
2024/04/16 07:59:32;;;;;;;26.35;9.38;;;666.20;1382.40;;;;;;5509233;26;20070;-82
2024/04/16 08:01:58;;;;;;;23.50;11.23;;;666.30;1382.40;;;;;;5512981;26;20423;-81
2024/04/16 08:04:23;;;;;;;17.88;10.70;;;666.20;1382.40;;;;;;5505724;26;20005;-84
2024/04/16 08:06:49;;;;;;;20.10;9.45;;;665.70;1382.40;;;;;;5496931;26;20005;-80
2024/04/16 08:09:15;;;;;;;20.48;9.70;;;666.10;1382.40;;;;;;5516123;26;20008;-78
2024/04/16 08:11:41;;;;;;;24.65;8.57;;;666.10;1382.40;;;;;;5507709;25;20006;-80
2024/04/16 08:14:07;;;;;;;23.65;9.55;;;666.10;1356.80;;;;;;5505567;26;20090;-80
2024/04/16 08:16:33;;;;;;;28.55;9.82;;;666.20;1382.40;;;;;;5520011;26;20001;-81
2024/04/16 08:18:59;;;;;;;17.70;9.85;;;666.10;1382.40;;;;;;5519908;26;20009;-81
2024/04/16 08:21:24;;;;;;;24.08;9.48;;;666.30;1356.80;;;;;;5484156;26;20004;-79
2024/04/16 08:23:53;;;;;;;24.25;9.80;;;666.50;1356.80;;;;;;5518773;26;20323;-80
2024/04/16 08:26:19;;;;;;;30.77;10.10;;;666.50;1331.20;;;;;;5517720;26;20069;-82
2024/04/16 08:28:45;;;;;;;25.80;9.70;;;666.50;1331.20;;;;;;5519981;25;20431;-80
2024/04/16 08:31:11;;;;;;;28.17;10.18;;;691.30;1331.20;;;;;;5520132;25;19994;-81
2024/04/16 08:33:37;;;;;;;24.17;10.43;;;691.30;1305.60;;;;;;5520344;26;20005;-80
2024/04/16 08:36:03;;;;;;;23.17;9.23;;;691.20;1331.20;;;;;;5493896;26;20010;-79
2024/04/16 08:38:29;;;;;;;22.25;9.68;;;666.50;1331.20;;;;;;5518382;25;20671;-81
2024/04/16 08:40:56;;;;;;;27.55;9.30;;;666.40;1331.20;;;;;;5517663;25;20434;-81
2024/04/16 08:43:24;;;;;;;24.08;9.38;;;666.20;1331.20;;;;;;5494702;26;20072;-78
2024/04/16 08:45:51;;;;;;;19.23;8.35;;;666.00;1331.20;;;;;;5518861;25;19997;-78
2024/04/16 08:48:19;;;;;;;19.27;8.68;;;665.70;1331.20;;;;;;5519663;25;19994;-79
2024/04/16 08:50:46;;;;;;;26.73;9.60;;;665.90;1305.60;;;;;;5517314;25;20009;-78
2024/04/16 08:53:13;;;;;;;24.52;9.00;;;665.60;1331.20;;;;;;5520385;26;20376;-79
2024/04/16 08:55:40;;;;;;;27.48;9.50;;;665.60;1356.80;;;;;;5519265;25;20042;-78
2024/04/16 08:58:06;;;;;;;26.20;8.88;;;665.60;1356.80;;;;;;5518311;26;20008;-77
2024/04/16 09:00:32;;;;;;;22.02;9.13;;;665.60;1305.60;;;;;;5519204;26;19993;-77
2024/04/16 09:02:58;;;;;;;23.90;8.32;;;665.60;1331.20;;;;;;5520011;26;20003;-77
2024/04/16 09:05:24;;;;;;;20.65;9.13;;;640.70;1331.20;;;;;;5517790;26;20005;-78
2024/04/16 09:07:50;;;;;;;23.80;8.77;;;640.70;1331.20;;;;;;5517117;26;19997;-77
2024/04/16 09:10:21;;;;;;;19.85;9.07;;;640.60;1356.80;;;;;;5519078;25;20509;-78
2024/04/16 09:12:50;;;;;;;20.13;8.48;;;640.60;1331.20;;;;;;5500043;26;19998;-78
2024/04/16 09:15:18;;;;;;;23.92;9.48;;;640.60;1356.80;;;;;;5517290;26;19997;-78
2024/04/16 09:17:56;;;;;;;30.00;9.50;;;640.50;1331.20;;;;;;5515747;25;19999;-79
2024/04/16 09:20:24;;;;;;;26.13;9.95;;;640.60;1331.20;;;;;;5517584;26;20008;-79
2024/04/16 09:22:52;;;;;;;19.48;9.43;;;640.60;1356.80;;;;;;5519131;26;20001;-78
2024/04/16 09:25:20;;;;;;;29.05;9.38;;;640.70;1331.20;;;;;;5517745;26;20009;-79
2024/04/16 09:27:50;;;;;;;27.50;9.55;;;640.60;1331.20;;;;;;5517029;26;20507;-79
2024/04/16 09:30:17;;;;;;;21.98;8.25;;;640.70;1331.20;;;;;;5505254;25;20002;-79
2024/04/16 09:32:45;;;;;;;23.65;8.80;;;640.70;1331.20;;;;;;5516975;25;20001;-80
2024/04/16 09:35:11;;;;;;;17.33;9.07;;;640.80;1331.20;;;;;;5480220;26;20002;-77
2024/04/16 09:37:37;;;;;;;21.75;7.72;;;640.80;1331.20;;;;;;5505945;26;20009;-79
2024/04/16 09:40:06;;;;;;;30.50;8.80;;;640.90;1331.20;;;;;;5518914;26;19998;-78
2024/04/16 09:42:35;;;;;;;23.35;7.78;;;640.90;1331.20;;;;;;5516204;25;20444;-78
2024/04/16 09:45:01;;;;;;;18.13;7.70;;;640.90;1331.20;;;;;;5518999;26;20016;-80
2024/04/16 09:47:27;;;;;;;22.38;8.73;;;665.60;1356.80;;;;;;5516882;26;20073;-78
2024/04/16 09:49:54;;;;;;;24.50;8.18;;;665.90;1331.20;;;;;;5518926;26;20008;-79
2024/04/16 09:52:21;;;;;;;25.45;9.90;;;666.00;1331.20;;;;;;5515015;25;20879;-79
2024/04/16 09:54:49;;;;;;;25.98;9.02;;;666.10;1331.20;;;;;;5516541;25;20009;-77
2024/04/16 09:57:19;;;;;;;22.25;8.43;;;666.20;1331.20;;;;;;5517203;25;20897;-78
2024/04/16 09:59:48;;;;;;;21.50;8.95;;;666.20;1305.60;;;;;;5518620;26;20013;-78
2024/04/16 10:02:14;;;;;;;21.85;8.35;;;666.30;1331.20;;;;;;5517252;25;20004;-78
2024/04/16 10:04:40;;;;;;;31.27;9.25;;;666.30;1305.60;;;;;;5499536;26;20411;-78
2024/04/16 10:07:07;;;;;;;27.40;9.55;;;666.40;1305.60;;;;;;5509449;25;20013;-79
2024/04/16 10:09:33;;;;;;;32.65;9.43;;;666.50;1331.20;;;;;;5516024;26;20009;-80
2024/04/16 10:12:00;;;;;;;25.42;8.85;;;666.40;1305.60;;;;;;5501549;26;19999;-80
2024/04/16 10:14:28;;;;;;;21.38;8.73;;;666.40;1356.80;;;;;;5512417;26;19997;-79
2024/04/16 10:16:54;;;;;;;29.80;9.88;;;666.50;1331.20;;;;;;5515783;26;19994;-78
2024/04/16 10:19:20;;;;;;;23.90;9.07;;;666.30;1331.20;;;;;;5519646;26;19993;-79
2024/04/16 10:21:49;;;;;;;20.30;9.35;;;666.50;1356.80;;;;;;5520935;25;20442;-80
2024/04/16 10:24:19;;;;;;;18.58;9.00;;;666.30;1356.80;;;;;;5520190;26;19997;-80
2024/04/16 10:26:47;;;;;;;21.35;8.73;;;666.30;1331.20;;;;;;5520606;26;20082;-80
2024/04/16 10:29:14;;;;;;;26.65;9.63;;;666.20;1356.80;;;;;;5521328;26;20459;-78
2024/04/16 10:31:40;;;;;;;21.85;9.27;;;666.00;1331.20;;;;;;5518526;26;20463;-79
2024/04/16 10:34:06;;;;;;;28.27;9.57;;;666.00;1331.20;;;;;;5518307;26;20001;-80
2024/04/16 10:36:35;;;;;;;22.70;8.80;;;666.00;1331.20;;;;;;5494614;26;20006;-80
2024/04/16 10:39:12;;;;;;;25.27;9.35;;;666.00;1356.80;;;;;;5509009;26;20001;-80
2024/04/16 10:41:37;;;;;;;39.35;10.93;;;666.00;1356.80;;;;;;5520775;26;19997;-79
2024/04/16 10:44:03;;;;;;;32.53;9.38;;;666.00;1356.80;;;;;;5519235;26;19994;-79
2024/04/16 10:46:30;;;;;;;27.13;9.35;;;665.90;1356.80;;;;;;5518422;26;20008;-79
2024/04/16 10:48:59;;;;;;;24.52;10.48;;;665.90;1331.20;;;;;;5520464;25;19997;-79
2024/04/16 10:51:28;;;;;;;21.25;9.30;;;666.00;1331.20;;;;;;5510518;25;20002;-79
2024/04/16 10:54:05;;;;;;;22.73;9.23;;;665.90;1331.20;;;;;;5507820;26;20444;-79
2024/04/16 10:56:31;;;;;;;22.73;8.60;;;665.90;1356.80;;;;;;5519102;25;20012;-79
2024/04/16 10:58:56;;;;;;;18.08;8.85;;;665.90;1356.80;;;;;;5516487;26;19997;-79
2024/04/16 11:01:23;;;;;;;20.90;9.73;;;665.90;1356.80;;;;;;5520844;26;19993;-78
2024/04/16 11:03:49;;;;;;;31.95;10.65;;;665.90;1331.20;;;;;;5549759;25;20435;-79
2024/04/16 11:06:19;;;;;;;27.38;9.40;;;665.90;1356.80;;;;;;5518659;25;21067;-78
2024/04/16 11:08:45;;;;;;;21.40;9.20;;;666.00;1331.20;;;;;;5521682;25;20428;-80
2024/04/16 11:11:13;;;;;;;21.17;9.05;;;666.00;1356.80;;;;;;5521143;25;20001;-80
2024/04/16 11:13:39;;;;;;;25.92;8.25;;;666.00;1356.80;;;;;;5494484;26;20018;-78
2024/04/16 11:16:06;;;;;;;31.05;10.93;;;666.00;1356.80;;;;;;5503530;26;19995;-77
2024/04/16 11:18:32;;;;;;;18.70;9.48;;;666.20;1331.20;;;;;;5512737;26;19998;-77
2024/04/16 11:20:58;;;;;;;23.17;8.27;;;666.40;1356.80;;;;;;5520773;26;20352;-79
2024/04/16 11:23:24;;;;;;;29.67;9.35;;;666.50;1356.80;;;;;;5519439;25;20012;-79
2024/04/16 11:25:49;;;;;;;26.77;9.95;;;691.20;1331.20;;;;;;5520513;26;19998;-80
2024/04/16 11:28:15;;;;;;;25.63;9.43;;;691.20;1331.20;;;;;;5494051;26;20672;-77
2024/04/16 11:30:53;;;;;;;20.75;9.43;;;691.20;1331.20;;;;;;5519966;25;20001;-77
2024/04/16 11:33:19;;;;;;;27.92;8.57;;;691.20;1331.20;;;;;;5518086;25;19998;-78
2024/04/16 11:35:45;;;;;;;26.30;9.13;;;666.50;1331.20;;;;;;5521489;26;19997;-80
2024/04/16 11:38:11;;;;;;;24.23;9.15;;;666.50;1356.80;;;;;;5518985;25;20026;-79
2024/04/16 11:40:40;;;;;;;21.48;9.48;;;666.50;1331.20;;;;;;5524722;25;19998;-79
2024/04/16 11:43:09;;;;;;;18.95;9.43;;;691.20;1331.20;;;;;;5520256;26;20002;-79
2024/04/16 11:45:35;;;;;;;21.77;8.95;;;691.20;1305.60;;;;;;5519449;25;20268;-80
2024/04/16 11:48:01;;;;;;;25.83;10.50;;;691.30;1305.60;;;;;;5519493;26;20013;-79
2024/04/16 11:50:29;;;;;;;25.50;9.00;;;691.40;1305.60;;;;;;5521104;25;20471;-78
2024/04/16 11:52:54;;;;;;;27.52;9.20;;;691.60;1280.00;;;;;;5517311;25;20618;-76
2024/04/16 11:55:20;;;;;;;30.05;10.07;;;691.70;1305.60;;;;;;5520813;26;19997;-77
2024/04/16 11:57:46;;;;;;;17.15;8.82;;;691.80;1280.00;;;;;;5519154;26;20359;-79
2024/04/16 12:00:12;;;;;;;27.20;9.60;;;691.70;1280.00;;;;;;5520588;25;19997;-78
2024/04/16 12:02:38;;;;;;;23.73;9.05;;;691.70;1280.00;;;;;;5516672;26;20002;-78
2024/04/16 12:05:04;;;;;;;29.88;9.02;;;691.60;1305.60;;;;;;5520102;25;20007;-77
2024/04/16 12:07:29;;;;;;;24.70;9.40;;;691.60;1305.60;;;;;;5516800;25;20381;-77